Nizhniy Novgorod, Russia
Current Conditions -  °F | °C
As of 12:30 PM on Sunday 26 Oct 2014 (Local Time) from UWGG Reporting Station
Clear Clear  
Wind Chill: 21°   Ceiling: Unl
Heat Index: 28°   Visibility: 6mi
Dew Point: 16°   Wind: 7mph
Humidity: 59%   Direction: 220°SW
Pressure: 30.53"   Gusts: NA
Location:  56.33°N, 44°E
Report Text: UWGG 260930Z 22003MPS 180V250 CAVOK M02/M09 Q1034 NOSIG18820050 RMK QFE768
Loading
Personal Weather Stations






























Interactive Weather Map
Tropical Storm Tracking
New forecast layout! Learn more

10-Day Weather Forecast

Advertisements
Track Severe Weather on mobile